createdAt,value
2023-04-25T00:01:41.540Z,3.35
2023-04-25T00:04:08.247Z,2.47
2023-04-25T00:06:38.268Z,2.75
2023-04-25T00:09:08.432Z,3.03
2023-04-25T00:11:35.324Z,3.28
2023-04-25T00:14:03.352Z,3.63
2023-04-25T00:16:31.725Z,3.13
2023-04-25T00:18:59.699Z,3.60
2023-04-25T00:23:56.893Z,3.17
2023-04-25T00:26:23.541Z,3.28
2023-04-25T00:28:49.951Z,3.13
2023-04-25T00:31:16.738Z,3.42
2023-04-25T00:33:43.275Z,3.17
2023-04-25T00:36:10.254Z,3.40
2023-04-25T00:38:36.813Z,3.58
2023-04-25T00:41:03.257Z,3.45
2023-04-25T00:43:33.290Z,3.30
2023-04-25T00:46:01.437Z,3.00
2023-04-25T00:48:28.185Z,3.15
2023-04-25T00:50:57.769Z,3.35
2023-04-25T00:53:25.886Z,3.22
2023-04-25T00:55:53.138Z,2.90
2023-04-25T00:58:20.924Z,3.25
2023-04-25T01:03:20.767Z,3.45
2023-04-25T01:05:48.892Z,3.10
2023-04-25T01:08:15.615Z,3.08
2023-04-25T01:10:42.162Z,3.35
2023-04-25T01:13:08.868Z,3.80
2023-04-25T01:15:36.936Z,3.25
2023-04-25T01:18:04.965Z,3.30
2023-04-25T01:20:33.221Z,3.22
2023-04-25T01:23:00.655Z,3.05
2023-04-25T01:25:27.128Z,3.53
2023-04-25T01:27:53.955Z,3.50
2023-04-25T01:30:20.896Z,3.50
2023-04-25T01:32:49.165Z,3.42
2023-04-25T01:35:15.872Z,3.20
2023-04-25T01:37:43.796Z,2.70
2023-04-25T01:40:12.043Z,3.22
2023-04-25T01:42:43.399Z,3.42
2023-04-25T01:45:11.715Z,3.40
2023-04-25T01:47:40.442Z,3.40
2023-04-25T01:50:08.349Z,3.17
2023-04-25T01:52:34.787Z,3.53
2023-04-25T01:55:03.474Z,3.53
2023-04-25T01:57:29.952Z,3.58
2023-04-25T02:00:01.512Z,3.28
2023-04-25T02:02:28.399Z,2.75
2023-04-25T02:04:55.566Z,3.03
2023-04-25T02:07:22.202Z,3.00
2023-04-25T02:09:48.943Z,3.10
2023-04-25T02:12:15.569Z,2.80
2023-04-25T02:14:42.192Z,3.42
2023-04-25T02:17:08.916Z,3.70
2023-04-25T02:19:35.645Z,2.88
2023-04-25T02:22:02.257Z,3.25
2023-04-25T02:24:28.937Z,3.33
2023-04-25T02:26:56.890Z,2.90
2023-04-25T02:29:23.808Z,3.00
2023-04-25T02:31:50.316Z,2.97
2023-04-25T02:34:17.035Z,3.45
2023-04-25T02:36:43.502Z,3.65
2023-04-25T02:39:09.967Z,3.92
2023-04-25T02:41:36.453Z,3.80
2023-04-25T02:44:02.931Z,3.80
2023-04-25T02:46:39.090Z,3.38
2023-04-25T02:49:07.208Z,3.90
2023-04-25T02:51:33.783Z,3.08
2023-04-25T02:54:00.305Z,3.35
2023-04-25T02:56:27.251Z,3.70
2023-04-25T02:58:54.601Z,3.70
2023-04-25T03:01:21.204Z,3.28
2023-04-25T03:03:47.929Z,3.45
2023-04-25T03:06:14.869Z,3.45
2023-04-25T03:08:41.340Z,3.70
2023-04-25T03:11:07.763Z,3.03
2023-04-25T03:13:34.401Z,3.60
2023-04-25T03:16:01.079Z,3.80
2023-04-25T03:18:27.785Z,3.53
2023-04-25T03:20:54.186Z,3.03
2023-04-25T03:23:20.844Z,3.25
2023-04-25T03:25:47.397Z,2.53
2023-04-25T03:28:13.823Z,2.83
2023-04-25T03:30:40.259Z,2.85
2023-04-25T03:33:06.763Z,2.92
2023-04-25T03:35:33.228Z,3.28
2023-04-25T03:37:59.656Z,3.78
2023-04-25T03:40:26.036Z,3.10
2023-04-25T03:42:52.418Z,2.92
2023-04-25T03:45:18.919Z,2.75
2023-04-25T03:47:45.478Z,2.88
2023-04-25T03:50:12.063Z,2.85
2023-04-25T03:52:38.569Z,2.80
2023-04-25T03:55:05.809Z,3.30
2023-04-25T03:57:32.319Z,2.47
2023-04-25T03:59:58.698Z,2.80
2023-04-25T04:02:25.450Z,2.67
2023-04-25T04:04:52.285Z,3.20
2023-04-25T04:07:18.852Z,2.88
2023-04-25T04:09:45.328Z,3.08
2023-04-25T04:12:11.977Z,3.00
2023-04-25T04:14:38.412Z,2.97
2023-04-25T04:17:04.966Z,3.15
2023-04-25T04:19:31.362Z,3.40
2023-04-25T04:21:57.750Z,3.42
2023-04-25T04:24:25.050Z,3.30
2023-04-25T04:26:51.759Z,3.40
2023-04-25T04:29:21.866Z,3.00
2023-04-25T04:31:50.542Z,3.40
2023-04-25T04:34:18.931Z,3.47
2023-04-25T04:36:47.190Z,3.65
2023-04-25T04:39:14.639Z,3.13
2023-04-25T04:41:41.381Z,3.20
2023-04-25T04:44:09.968Z,3.00
2023-04-25T04:46:38.856Z,3.25
2023-04-25T04:49:18.298Z,3.85
2023-04-25T04:51:47.910Z,2.95
2023-04-25T04:54:14.510Z,3.42
2023-04-25T04:56:41.246Z,3.33
2023-04-25T04:59:08.082Z,3.28
2023-04-25T05:01:36.967Z,2.88
2023-04-25T05:04:04.513Z,3.15
2023-04-25T05:06:32.228Z,3.22
2023-04-25T05:08:59.172Z,3.40
2023-04-25T05:11:28.950Z,3.25
2023-04-25T05:13:55.528Z,3.42
2023-04-25T05:16:22.040Z,3.45
2023-04-25T05:18:48.775Z,3.30
2023-04-25T05:21:15.316Z,3.42
2023-04-25T05:23:41.735Z,3.08
2023-04-25T05:26:14.452Z,3.30
2023-04-25T05:28:42.251Z,3.30
2023-04-25T05:31:10.814Z,3.47
2023-04-25T05:33:37.266Z,3.50
2023-04-25T05:36:05.101Z,2.80
2023-04-25T05:38:34.531Z,3.45
2023-04-25T05:41:01.426Z,3.15
2023-04-25T05:43:27.975Z,3.30
2023-04-25T05:45:54.447Z,3.17
2023-04-25T05:48:20.956Z,3.33
2023-04-25T05:50:47.458Z,2.53
2023-04-25T05:53:14.007Z,2.97
2023-04-25T05:55:40.506Z,2.78
2023-04-25T05:58:09.766Z,2.55
2023-04-25T06:00:36.504Z,2.65
2023-04-25T06:03:03.445Z,2.42
2023-04-25T06:05:30.337Z,2.47
2023-04-25T06:07:56.888Z,1.85
2023-04-25T06:10:23.664Z,2.38
2023-04-25T06:12:50.278Z,2.45
2023-04-25T06:15:28.210Z,3.03
2023-04-25T06:17:57.294Z,2.63
2023-04-25T06:20:25.784Z,2.42
2023-04-25T06:22:52.832Z,2.25
2023-04-25T06:25:19.703Z,2.20
2023-04-25T06:27:46.207Z,2.00
2023-04-25T06:30:13.215Z,2.10
2023-04-25T06:32:40.250Z,2.40
2023-04-25T06:35:07.219Z,2.00
2023-04-25T06:37:33.618Z,2.33
2023-04-25T06:40:00.048Z,2.50
2023-04-25T06:42:26.595Z,2.72
2023-04-25T06:44:53.101Z,2.25
2023-04-25T06:47:19.573Z,2.30
2023-04-25T06:49:46.167Z,2.45
2023-04-25T06:52:12.610Z,2.15
2023-04-25T06:54:39.019Z,2.47
2023-04-25T06:57:05.411Z,2.60
2023-04-25T06:59:31.785Z,2.55
2023-04-25T07:01:58.377Z,2.95
2023-04-25T07:04:25.228Z,2.90
2023-04-25T07:06:51.738Z,2.42
2023-04-25T07:09:18.290Z,2.10
2023-04-25T07:11:44.717Z,2.10
2023-04-25T07:14:11.209Z,2.25
2023-04-25T07:16:37.710Z,2.00
2023-04-25T07:19:04.256Z,2.15
2023-04-25T07:21:32.179Z,2.05
2023-04-25T07:23:59.130Z,2.10
2023-04-25T07:26:25.775Z,2.63
2023-04-25T07:28:52.492Z,2.30
2023-04-25T07:31:19.628Z,2.70
2023-04-25T07:33:47.022Z,2.90
2023-04-25T07:36:13.861Z,2.63
2023-04-25T07:38:40.544Z,2.38
2023-04-25T07:41:07.126Z,2.95
2023-04-25T07:43:33.884Z,2.50
2023-04-25T07:46:00.429Z,2.10
2023-04-25T07:48:26.981Z,2.88
2023-04-25T07:50:53.803Z,2.55
2023-04-25T07:53:20.268Z,2.60
2023-04-25T07:55:48.081Z,2.92
2023-04-25T08:00:43.160Z,2.80
2023-04-25T08:03:10.675Z,2.90
2023-04-25T08:05:37.501Z,2.92
2023-04-25T08:08:04.247Z,2.63
2023-04-25T08:10:30.892Z,3.38
2023-04-25T08:12:57.373Z,3.17
2023-04-25T08:15:23.970Z,3.28
2023-04-25T08:17:50.472Z,3.30
2023-04-25T08:20:17.004Z,3.70
2023-04-25T08:22:43.662Z,3.40
2023-04-25T08:25:10.143Z,3.35
2023-04-25T08:27:37.343Z,2.80
2023-04-25T08:30:04.914Z,3.75
2023-04-25T08:32:31.411Z,4.10
2023-04-25T08:34:57.903Z,3.95
2023-04-25T08:37:24.332Z,3.30
2023-04-25T08:39:53.400Z,4.50
2023-04-25T08:42:21.408Z,4.28
2023-04-25T08:44:49.160Z,4.50
2023-04-25T08:47:15.928Z,3.53
2023-04-25T08:49:46.934Z,4.07
2023-04-25T08:52:14.852Z,3.80
2023-04-25T08:57:16.488Z,4.50
2023-04-25T09:02:16.941Z,3.92
2023-04-25T09:04:46.516Z,2.97
2023-04-25T09:07:13.214Z,3.63
2023-04-25T09:09:40.346Z,3.30
2023-04-25T09:12:07.084Z,4.40
2023-04-25T09:14:33.468Z,2.92
2023-04-25T09:17:02.340Z,5.30
2023-04-25T09:19:40.290Z,7.32
2023-04-25T09:22:08.986Z,4.65
2023-04-25T09:24:37.657Z,3.63
2023-04-25T09:27:08.177Z,2.72
2023-04-25T09:29:37.216Z,2.40
2023-04-25T09:32:17.415Z,2.50
2023-04-25T09:34:46.075Z,2.70
2023-04-25T09:37:13.069Z,2.90
2023-04-25T09:39:39.804Z,3.45
2023-04-25T09:42:06.698Z,4.15
2023-04-25T09:44:33.216Z,4.13
2023-04-25T09:47:00.349Z,4.07
2023-04-25T09:49:28.630Z,4.78
2023-04-25T09:51:59.451Z,4.68
2023-04-25T09:54:26.703Z,4.28
2023-04-25T09:56:54.784Z,4.55
2023-04-25T09:59:25.355Z,3.60
2023-04-25T10:01:53.575Z,3.40
2023-04-25T10:04:22.486Z,2.40
2023-04-25T10:06:51.394Z,2.28
2023-04-25T10:09:21.249Z,1.77
2023-04-25T10:11:51.458Z,1.70
2023-04-25T10:14:19.269Z,1.20
2023-04-25T10:16:47.952Z,1.30
2023-04-25T10:19:14.974Z,1.30
2023-04-25T10:21:49.323Z,1.25
2023-04-25T10:24:16.429Z,1.52
2023-04-25T10:26:43.426Z,1.50
2023-04-25T10:29:10.448Z,1.52
2023-04-25T10:31:47.090Z,1.40
2023-04-25T10:34:13.910Z,1.92
2023-04-25T10:36:40.752Z,1.73
2023-04-25T10:39:09.842Z,1.70
2023-04-25T10:41:54.177Z,1.42
2023-04-25T10:44:20.656Z,1.40
2023-04-25T10:46:47.165Z,1.30
2023-04-25T10:49:31.422Z,1.30
2023-04-25T10:52:23.992Z,0.80
2023-04-25T10:54:58.603Z,0.90
2023-04-25T10:57:40.339Z,0.60
2023-04-25T11:00:30.818Z,0.70
2023-04-25T11:03:07.930Z,0.68
2023-04-25T11:05:47.607Z,1.80
2023-04-25T11:08:41.589Z,0.70
2023-04-25T11:11:09.272Z,1.27
2023-04-25T11:13:35.773Z,0.63
2023-04-25T11:16:12.183Z,0.80
2023-04-25T11:18:42.591Z,1.00
2023-04-25T11:21:09.258Z,1.20
2023-04-25T11:23:35.871Z,0.90
2023-04-25T11:26:02.488Z,0.80
2023-04-25T11:28:29.099Z,1.02
2023-04-25T11:30:55.620Z,0.95
2023-04-25T11:33:25.010Z,0.90
2023-04-25T11:35:54.859Z,0.80
2023-04-25T11:38:22.593Z,0.80
2023-04-25T11:40:52.269Z,0.98
2023-04-25T11:43:21.815Z,0.90
2023-04-25T11:45:54.587Z,1.00
2023-04-25T11:48:26.159Z,0.90
2023-04-25T11:50:54.455Z,0.80
2023-04-25T11:53:20.839Z,1.20
2023-04-25T11:55:47.393Z,1.05
2023-04-25T11:58:14.813Z,1.10
2023-04-25T12:00:50.354Z,1.10
2023-04-25T12:03:19.340Z,0.90
2023-04-25T12:05:47.422Z,1.13
2023-04-25T12:08:15.798Z,0.90
2023-04-25T12:10:44.725Z,1.00
2023-04-25T12:13:25.950Z,1.10
2023-04-25T12:18:26.197Z,1.30
2023-04-25T12:20:53.879Z,1.25
2023-04-25T12:23:28.213Z,1.20
2023-04-25T12:25:54.807Z,1.20
2023-04-25T12:28:28.008Z,1.20
2023-04-25T12:31:04.243Z,1.17
2023-04-25T12:33:35.617Z,1.35
2023-04-25T12:36:09.896Z,1.38
2023-04-25T12:38:38.757Z,1.17
2023-04-25T12:41:05.313Z,1.35
2023-04-25T12:43:32.225Z,0.90
2023-04-25T12:45:58.676Z,1.05
2023-04-25T12:48:25.405Z,1.38
2023-04-25T12:50:53.069Z,1.70
2023-04-25T12:53:23.913Z,1.33
2023-04-25T12:55:50.903Z,1.00
2023-04-25T12:58:19.338Z,1.00
2023-04-25T13:00:46.511Z,1.40
2023-04-25T13:03:13.593Z,1.20
2023-04-25T13:05:40.836Z,1.25
2023-04-25T13:08:07.362Z,1.48
2023-04-25T13:10:34.911Z,1.40
2023-04-25T13:13:02.105Z,1.77
2023-04-25T13:15:28.683Z,2.17
2023-04-25T13:17:55.159Z,2.22
2023-04-25T13:20:23.394Z,2.20
2023-04-25T13:22:49.917Z,2.00
2023-04-25T13:25:17.287Z,1.90
2023-04-25T13:27:45.317Z,2.00
2023-04-25T13:30:11.870Z,2.13
2023-04-25T13:32:39.054Z,2.10
2023-04-25T13:35:11.225Z,2.03
2023-04-25T13:37:38.123Z,1.63
2023-04-25T13:40:07.363Z,2.15
2023-04-25T13:42:33.762Z,2.63
2023-04-25T13:45:00.242Z,2.33
2023-04-25T13:47:27.431Z,1.95
2023-04-25T13:49:54.468Z,2.20
2023-04-25T13:52:21.283Z,2.30
2023-04-25T13:54:47.855Z,1.95
2023-04-25T13:57:14.386Z,2.33
2023-04-25T13:59:41.771Z,2.30
2023-04-25T14:02:08.374Z,2.47
2023-04-25T14:04:34.999Z,2.45
2023-04-25T14:07:03.148Z,3.35
2023-04-25T14:09:29.772Z,2.50
2023-04-25T14:11:56.562Z,2.90
2023-04-25T14:14:23.456Z,3.67
2023-04-25T14:16:51.251Z,4.00
2023-04-25T14:19:20.883Z,4.00
2023-04-25T14:21:48.504Z,4.32
2023-04-25T14:24:15.001Z,4.00
2023-04-25T14:26:41.625Z,4.13
2023-04-25T14:29:09.643Z,3.92
2023-04-25T14:31:36.362Z,4.53
2023-04-25T14:34:03.615Z,4.07
2023-04-25T14:36:30.203Z,3.75
2023-04-25T14:38:56.949Z,4.53
2023-04-25T14:41:24.041Z,4.03
2023-04-25T14:43:50.809Z,4.53
2023-04-25T14:46:17.667Z,4.25
2023-04-25T14:48:44.509Z,4.80
2023-04-25T14:51:11.334Z,4.05
2023-04-25T14:53:37.752Z,4.70
2023-04-25T14:56:04.396Z,3.92
2023-04-25T14:58:32.279Z,4.55
2023-04-25T15:00:59.336Z,4.13
2023-04-25T15:03:26.102Z,4.03
2023-04-25T15:05:53.772Z,4.53
2023-04-25T15:08:20.246Z,3.60
2023-04-25T15:10:47.346Z,3.72
2023-04-25T15:13:13.963Z,4.72
2023-04-25T15:15:40.913Z,4.25
2023-04-25T15:18:07.421Z,3.92
2023-04-25T15:20:33.944Z,4.72
2023-04-25T15:23:00.428Z,4.10
2023-04-25T15:25:29.339Z,4.07
2023-04-25T15:27:55.898Z,3.92
2023-04-25T15:30:22.395Z,4.28
2023-04-25T15:32:49.354Z,4.80
2023-04-25T15:35:16.153Z,4.43
2023-04-25T15:37:43.208Z,4.43
2023-04-25T15:40:12.159Z,4.18
2023-04-25T15:42:43.772Z,4.60
2023-04-25T15:45:12.085Z,3.83
2023-04-25T15:47:39.397Z,3.72
2023-04-25T15:50:08.256Z,4.10
2023-04-25T15:52:35.664Z,3.75
2023-04-25T15:55:02.394Z,3.60
2023-04-25T15:57:28.794Z,3.72
2023-04-25T15:59:56.493Z,3.45
2023-04-25T16:02:23.018Z,3.20
2023-04-25T16:04:49.995Z,3.20
2023-04-25T16:07:16.542Z,3.20
2023-04-25T16:09:43.010Z,3.00
2023-04-25T16:12:11.088Z,3.75
2023-04-25T16:14:37.754Z,3.20
2023-04-25T16:17:04.138Z,3.45
2023-04-25T16:19:30.530Z,3.25
2023-04-25T16:21:57.153Z,3.33
2023-04-25T16:24:23.826Z,3.72
2023-04-25T16:26:50.163Z,3.58
2023-04-25T16:29:17.721Z,3.50
2023-04-25T16:31:44.569Z,4.28
2023-04-25T16:34:11.261Z,4.00
2023-04-25T16:36:37.802Z,3.45
2023-04-25T16:39:04.304Z,2.67
2023-04-25T16:41:30.716Z,3.60
2023-04-25T16:43:57.337Z,3.20
2023-04-25T16:46:23.887Z,3.00
2023-04-25T16:48:50.744Z,3.30
2023-04-25T16:51:17.467Z,3.03
2023-04-25T16:53:44.222Z,2.92
2023-04-25T16:56:10.664Z,2.92
2023-04-25T16:58:37.239Z,3.05
2023-04-25T17:01:04.217Z,2.70
2023-04-25T17:03:33.306Z,3.30
2023-04-25T17:06:02.206Z,3.88
2023-04-25T17:08:29.381Z,3.50
2023-04-25T17:10:55.993Z,5.22
2023-04-25T17:13:22.368Z,5.25
2023-04-25T17:15:57.456Z,3.97
2023-04-25T17:18:24.625Z,4.03
2023-04-25T17:20:51.457Z,3.65
2023-04-25T17:23:19.382Z,3.88
2023-04-25T17:25:45.973Z,4.50
2023-04-25T17:28:13.030Z,3.67
2023-04-25T17:30:39.738Z,3.70
2023-04-25T17:33:07.109Z,4.53
2023-04-25T17:35:36.791Z,6.32
2023-04-25T17:38:04.395Z,5.40
2023-04-25T17:40:31.527Z,4.07
2023-04-25T17:42:58.264Z,4.93
2023-04-25T17:45:24.693Z,4.68
2023-04-25T17:47:51.206Z,3.95
2023-04-25T17:50:18.366Z,4.18
2023-04-25T17:52:45.571Z,3.75
2023-04-25T17:55:11.999Z,3.83
2023-04-25T17:57:38.416Z,3.65
2023-04-25T18:00:07.820Z,4.05
2023-04-25T18:02:36.534Z,4.97
2023-04-25T18:05:09.825Z,4.07
2023-04-25T18:07:36.950Z,4.20
2023-04-25T18:10:08.388Z,4.47
2023-04-25T18:12:35.028Z,8.13
2023-04-25T18:15:01.937Z,5.53
2023-04-25T18:17:28.520Z,5.15
2023-04-25T18:19:55.551Z,4.65
2023-04-25T18:22:22.475Z,8.63
2023-04-25T18:24:51.013Z,8.57
2023-04-25T18:27:17.481Z,9.93
2023-04-25T18:29:45.451Z,11.23
2023-04-25T18:32:12.263Z,9.70
2023-04-25T18:34:41.571Z,9.45
2023-04-25T18:37:07.999Z,8.85
2023-04-25T18:39:34.719Z,7.07
2023-04-25T18:42:06.509Z,7.00
2023-04-25T18:44:36.479Z,6.53
2023-04-25T18:47:03.043Z,6.15
2023-04-25T18:49:29.505Z,5.95
2023-04-25T18:51:57.395Z,6.78
2023-04-25T18:54:23.901Z,6.10
2023-04-25T18:56:50.440Z,5.97
2023-04-25T18:59:18.040Z,5.75
2023-04-25T19:01:44.658Z,5.20
2023-04-25T19:04:11.512Z,6.20
2023-04-25T19:06:38.078Z,5.93
2023-04-25T19:09:04.571Z,5.60
2023-04-25T19:11:31.077Z,5.60
2023-04-25T19:13:57.578Z,6.28
2023-04-25T19:16:26.144Z,5.50
2023-04-25T19:18:54.741Z,4.65
2023-04-25T19:21:21.271Z,4.75
2023-04-25T19:23:47.734Z,5.43
2023-04-25T19:26:14.211Z,5.07
2023-04-25T19:28:44.299Z,4.90
2023-04-25T19:31:11.844Z,5.00
2023-04-25T19:33:38.432Z,5.07
2023-04-25T19:36:05.084Z,4.47
2023-04-25T19:38:31.637Z,4.88
2023-04-25T19:40:58.108Z,4.45
2023-04-25T19:43:24.506Z,4.60
2023-04-25T19:45:51.099Z,5.53
2023-04-25T19:48:17.794Z,4.60
2023-04-25T19:50:44.187Z,4.78
2023-04-25T19:53:10.666Z,4.55
2023-04-25T19:55:37.160Z,5.28
2023-04-25T19:58:04.188Z,5.00
2023-04-25T20:00:30.692Z,5.03
2023-04-25T20:02:57.160Z,4.80
2023-04-25T20:05:23.884Z,5.18
2023-04-25T20:07:50.492Z,6.60
2023-04-25T20:10:17.370Z,5.85
2023-04-25T20:12:44.439Z,6.15
2023-04-25T20:15:11.717Z,5.97
2023-04-25T20:17:40.239Z,6.00
2023-04-25T20:20:07.632Z,7.28
2023-04-25T20:22:36.955Z,6.30
2023-04-25T20:25:05.242Z,6.25
2023-04-25T20:27:32.656Z,6.88
2023-04-25T20:30:03.313Z,6.45
2023-04-25T20:32:32.155Z,6.38
2023-04-25T20:34:58.748Z,6.75
2023-04-25T20:37:25.282Z,5.85
2023-04-25T20:39:52.104Z,6.63
2023-04-25T20:42:18.620Z,6.63
2023-04-25T20:44:45.338Z,6.28
2023-04-25T20:47:12.093Z,6.10
2023-04-25T20:49:38.492Z,5.90
2023-04-25T20:52:05.911Z,5.78
2023-04-25T20:54:32.360Z,5.53
2023-04-25T20:56:59.001Z,6.18
2023-04-25T20:59:26.508Z,6.80
2023-04-25T21:01:54.354Z,6.07
2023-04-25T21:06:47.788Z,5.20
2023-04-25T21:09:14.733Z,5.00
2023-04-25T21:11:41.203Z,5.90
2023-04-25T21:14:07.754Z,6.18
2023-04-25T21:16:35.419Z,5.63
2023-04-25T21:19:02.426Z,6.63
2023-04-25T21:21:28.871Z,5.22
2023-04-25T21:23:55.700Z,7.40
2023-04-25T21:26:22.274Z,6.82
2023-04-25T21:28:48.834Z,7.18
2023-04-25T21:31:15.644Z,6.90
2023-04-25T21:33:42.149Z,6.82
2023-04-25T21:36:08.770Z,5.97
2023-04-25T21:38:35.353Z,6.30
2023-04-25T21:41:01.860Z,5.80
2023-04-25T21:43:28.681Z,5.70
2023-04-25T21:46:15.230Z,5.40
2023-04-25T21:48:41.914Z,5.93
2023-04-25T21:51:08.328Z,5.55
2023-04-25T21:53:34.728Z,6.78
2023-04-25T21:56:01.189Z,7.38
2023-04-25T21:58:27.563Z,6.43
2023-04-25T22:00:54.019Z,6.40
2023-04-25T22:03:20.741Z,7.38
2023-04-25T22:05:47.312Z,7.60
2023-04-25T22:08:14.642Z,9.45
2023-04-25T22:10:41.982Z,8.52
2023-04-25T22:13:08.526Z,9.27
2023-04-25T22:15:35.446Z,8.85
2023-04-25T22:18:03.051Z,8.85
2023-04-25T22:20:29.649Z,8.25
2023-04-25T22:22:56.553Z,9.60
2023-04-25T22:25:23.837Z,9.27
2023-04-25T22:27:51.298Z,10.07
2023-04-25T22:30:18.460Z,8.70
2023-04-25T22:32:45.039Z,9.30
2023-04-25T22:35:12.030Z,7.70
2023-04-25T22:37:41.336Z,7.80
2023-04-25T22:40:09.089Z,10.00
2023-04-25T22:45:08.168Z,7.93
2023-04-25T22:47:36.217Z,7.70
2023-04-25T22:50:05.772Z,8.95
2023-04-25T22:52:33.587Z,8.95
2023-04-25T22:55:01.645Z,9.40
2023-04-25T22:57:28.125Z,10.18
2023-04-25T22:59:55.435Z,9.63
2023-04-25T23:02:22.432Z,9.35
2023-04-25T23:04:50.383Z,10.02
2023-04-25T23:07:17.562Z,8.68
2023-04-25T23:09:45.071Z,9.10
2023-04-25T23:12:11.713Z,8.02
2023-04-25T23:14:38.472Z,7.32
2023-04-25T23:17:05.001Z,7.57
2023-04-25T23:19:31.580Z,8.02
2023-04-25T23:21:58.004Z,7.35
2023-04-25T23:24:24.940Z,10.13
2023-04-25T23:26:51.950Z,9.50
2023-04-25T23:29:18.461Z,8.80
2023-04-25T23:31:44.856Z,8.45
2023-04-25T23:34:11.449Z,8.52
2023-04-25T23:36:37.881Z,8.02
2023-04-25T23:39:05.214Z,9.68
2023-04-25T23:41:32.082Z,8.20
2023-04-25T23:43:58.871Z,8.77
2023-04-25T23:46:25.953Z,8.50
2023-04-25T23:48:52.830Z,10.55
2023-04-25T23:51:19.691Z,10.13
2023-04-25T23:53:46.132Z,10.70
2023-04-25T23:56:12.587Z,10.98
2023-04-25T23:58:39.168Z,10.48
